sensor_id;sensor_type;location;lat;lon;timestamp;P1;durP1;ratioP1;P2;durP2;ratioP2
17524;SDS011;40431;52.198;9.902;2024-01-15T00:02:27;17.43;;;15.87;;
17524;SDS011;40431;52.198;9.902;2024-01-15T00:05:07;13.87;;;12.67;;
17524;SDS011;40431;52.198;9.902;2024-01-15T00:07:57;14.80;;;13.60;;
17524;SDS011;40431;52.198;9.902;2024-01-15T00:10:30;16.17;;;14.70;;
17524;SDS011;40431;52.198;9.902;2024-01-15T00:13:06;16.53;;;15.20;;
17524;SDS011;40431;52.198;9.902;2024-01-15T00:15:38;15.30;;;13.97;;
17524;SDS011;40431;52.198;9.902;2024-01-15T00:18:06;14.47;;;13.20;;
17524;SDS011;40431;52.198;9.902;2024-01-15T00:20:34;14.07;;;12.90;;
17524;SDS011;40431;52.198;9.902;2024-01-15T00:23:13;15.67;;;14.37;;
17524;SDS011;40431;52.198;9.902;2024-01-15T00:25:46;15.13;;;13.93;;
17524;SDS011;40431;52.198;9.902;2024-01-15T00:28:23;13.17;;;12.07;;
17524;SDS011;40431;52.198;9.902;2024-01-15T00:30:58;12.33;;;11.33;;
17524;SDS011;40431;52.198;9.902;2024-01-15T00:33:31;11.87;;;10.97;;
17524;SDS011;40431;52.198;9.902;2024-01-15T00:36:09;10.70;;;9.93;;
17524;SDS011;40431;52.198;9.902;2024-01-15T00:38:51;11.30;;;10.43;;
17524;SDS011;40431;52.198;9.902;2024-01-15T00:41:24;12.47;;;9.53;;
17524;SDS011;40431;52.198;9.902;2024-01-15T00:43:54;9.33;;;8.63;;
17524;SDS011;40431;52.198;9.902;2024-01-15T00:46:22;9.83;;;9.03;;
17524;SDS011;40431;52.198;9.902;2024-01-15T00:48:51;10.20;;;9.50;;
17524;SDS011;40431;52.198;9.902;2024-01-15T00:51:20;10.37;;;9.57;;
17524;SDS011;40431;52.198;9.902;2024-01-15T00:53:56;9.13;;;8.43;;
17524;SDS011;40431;52.198;9.902;2024-01-15T00:56:34;10.57;;;9.77;;
17524;SDS011;40431;52.198;9.902;2024-01-15T00:59:05;10.67;;;9.87;;
17524;SDS011;40431;52.198;9.902;2024-01-15T01:01:36;9.53;;;8.83;;
17524;SDS011;40431;52.198;9.902;2024-01-15T01:04:15;10.40;;;9.60;;
17524;SDS011;40431;52.198;9.902;2024-01-15T01:06:44;10.87;;;10.07;;
17524;SDS011;40431;52.198;9.902;2024-01-15T01:09:14;11.03;;;10.00;;
17524;SDS011;40431;52.198;9.902;2024-01-15T01:11:42;10.37;;;9.57;;
17524;SDS011;40431;52.198;9.902;2024-01-15T01:14:10;9.60;;;8.90;;
17524;SDS011;40431;52.198;9.902;2024-01-15T01:16:42;9.87;;;9.17;;
17524;SDS011;40431;52.198;9.902;2024-01-15T01:19:10;8.40;;;7.67;;
17524;SDS011;40431;52.198;9.902;2024-01-15T01:21:36;9.43;;;8.57;;
17524;SDS011;40431;52.198;9.902;2024-01-15T01:24:03;8.03;;;7.40;;
17524;SDS011;40431;52.198;9.902;2024-01-15T01:26:31;9.20;;;8.40;;
17524;SDS011;40431;52.198;9.902;2024-01-15T01:28:58;8.67;;;7.97;;
17524;SDS011;40431;52.198;9.902;2024-01-15T01:31:24;8.40;;;7.40;;
17524;SDS011;40431;52.198;9.902;2024-01-15T01:33:50;9.37;;;6.97;;
17524;SDS011;40431;52.198;9.902;2024-01-15T01:36:17;9.87;;;6.93;;
17524;SDS011;40431;52.198;9.902;2024-01-15T01:38:43;10.53;;;7.60;;
17524;SDS011;40431;52.198;9.902;2024-01-15T01:41:10;9.77;;;6.50;;
17524;SDS011;40431;52.198;9.902;2024-01-15T01:43:37;7.50;;;6.67;;
17524;SDS011;40431;52.198;9.902;2024-01-15T01:46:04;7.20;;;6.30;;
17524;SDS011;40431;52.198;9.902;2024-01-15T01:48:32;12.50;;;7.50;;
17524;SDS011;40431;52.198;9.902;2024-01-15T01:50:59;10.97;;;7.30;;
17524;SDS011;40431;52.198;9.902;2024-01-15T01:53:28;10.70;;;7.70;;
17524;SDS011;40431;52.198;9.902;2024-01-15T01:55:56;8.93;;;7.30;;
17524;SDS011;40431;52.198;9.902;2024-01-15T01:58:25;9.03;;;7.67;;
17524;SDS011;40431;52.198;9.902;2024-01-15T02:00:56;9.43;;;6.63;;
17524;SDS011;40431;52.198;9.902;2024-01-15T02:03:29;8.87;;;6.93;;
17524;SDS011;40431;52.198;9.902;2024-01-15T02:06:09;10.13;;;6.97;;
17524;SDS011;40431;52.198;9.902;2024-01-15T02:08:39;8.03;;;7.23;;
17524;SDS011;40431;52.198;9.902;2024-01-15T02:11:11;8.40;;;5.80;;
17524;SDS011;40431;52.198;9.902;2024-01-15T02:13:40;6.20;;;5.60;;
17524;SDS011;40431;52.198;9.902;2024-01-15T02:16:11;10.87;;;5.90;;
17524;SDS011;40431;52.198;9.902;2024-01-15T02:18:41;6.73;;;5.57;;
17524;SDS011;40431;52.198;9.902;2024-01-15T02:21:10;6.90;;;5.17;;
17524;SDS011;40431;52.198;9.902;2024-01-15T02:23:43;7.33;;;5.63;;
17524;SDS011;40431;52.198;9.902;2024-01-15T02:26:24;6.20;;;4.93;;
17524;SDS011;40431;52.198;9.902;2024-01-15T02:29:02;6.50;;;5.00;;
17524;SDS011;40431;52.198;9.902;2024-01-15T02:31:33;9.10;;;5.50;;
17524;SDS011;40431;52.198;9.902;2024-01-15T02:34:02;6.43;;;5.20;;
17524;SDS011;40431;52.198;9.902;2024-01-15T02:36:31;8.87;;;5.43;;
17524;SDS011;40431;52.198;9.902;2024-01-15T02:39:01;8.37;;;5.73;;
17524;SDS011;40431;52.198;9.902;2024-01-15T02:41:30;5.97;;;5.33;;
17524;SDS011;40431;52.198;9.902;2024-01-15T02:44:01;6.17;;;5.33;;
17524;SDS011;40431;52.198;9.902;2024-01-15T02:46:30;11.53;;;5.97;;
17524;SDS011;40431;52.198;9.902;2024-01-15T02:49:00;8.97;;;5.43;;
17524;SDS011;40431;52.198;9.902;2024-01-15T02:51:37;9.30;;;5.43;;
17524;SDS011;40431;52.198;9.902;2024-01-15T02:54:22;6.60;;;6.00;;
17524;SDS011;40431;52.198;9.902;2024-01-15T02:56:54;5.87;;;5.33;;
17524;SDS011;40431;52.198;9.902;2024-01-15T02:59:30;6.73;;;4.67;;
17524;SDS011;40431;52.198;9.902;2024-01-15T03:02:00;7.67;;;6.03;;
17524;SDS011;40431;52.198;9.902;2024-01-15T03:04:35;5.53;;;4.63;;
17524;SDS011;40431;52.198;9.902;2024-01-15T03:07:15;5.70;;;5.00;;
17524;SDS011;40431;52.198;9.902;2024-01-15T03:09:54;11.03;;;5.40;;
17524;SDS011;40431;52.198;9.902;2024-01-15T03:12:22;12.43;;;6.33;;
17524;SDS011;40431;52.198;9.902;2024-01-15T03:14:51;7.33;;;4.70;;
17524;SDS011;40431;52.198;9.902;2024-01-15T03:17:19;7.40;;;4.50;;
17524;SDS011;40431;52.198;9.902;2024-01-15T03:19:48;6.33;;;4.83;;
17524;SDS011;40431;52.198;9.902;2024-01-15T03:22:28;5.97;;;4.13;;
17524;SDS011;40431;52.198;9.902;2024-01-15T03:25:05;7.60;;;4.43;;
17524;SDS011;40431;52.198;9.902;2024-01-15T03:27:41;5.63;;;4.23;;
17524;SDS011;40431;52.198;9.902;2024-01-15T03:30:11;13.80;;;5.43;;
17524;SDS011;40431;52.198;9.902;2024-01-15T03:32:44;6.23;;;4.40;;
17524;SDS011;40431;52.198;9.902;2024-01-15T03:35:15;6.43;;;4.87;;
17524;SDS011;40431;52.198;9.902;2024-01-15T03:37:44;7.10;;;4.77;;
17524;SDS011;40431;52.198;9.902;2024-01-15T03:40:12;5.23;;;3.90;;
17524;SDS011;40431;52.198;9.902;2024-01-15T03:42:39;9.20;;;4.17;;
17524;SDS011;40431;52.198;9.902;2024-01-15T03:45:05;7.17;;;4.57;;
17524;SDS011;40431;52.198;9.902;2024-01-15T03:47:32;5.97;;;4.90;;
17524;SDS011;40431;52.198;9.902;2024-01-15T03:49:58;7.60;;;5.00;;
17524;SDS011;40431;52.198;9.902;2024-01-15T03:52:25;7.00;;;5.80;;
17524;SDS011;40431;52.198;9.902;2024-01-15T03:54:51;5.10;;;4.57;;
17524;SDS011;40431;52.198;9.902;2024-01-15T03:57:21;6.83;;;4.20;;
17524;SDS011;40431;52.198;9.902;2024-01-15T03:59:51;9.00;;;4.67;;
17524;SDS011;40431;52.198;9.902;2024-01-15T04:02:21;8.67;;;4.97;;
17524;SDS011;40431;52.198;9.902;2024-01-15T04:04:50;4.93;;;4.30;;
17524;SDS011;40431;52.198;9.902;2024-01-15T04:07:19;7.70;;;6.00;;
17524;SDS011;40431;52.198;9.902;2024-01-15T04:10:06;5.53;;;4.83;;
17524;SDS011;40431;52.198;9.902;2024-01-15T04:12:38;7.93;;;4.80;;
17524;SDS011;40431;52.198;9.902;2024-01-15T04:15:08;6.63;;;5.30;;
17524;SDS011;40431;52.198;9.902;2024-01-15T04:17:54;7.10;;;4.43;;
17524;SDS011;40431;52.198;9.902;2024-01-15T04:20:35;8.23;;;5.00;;
17524;SDS011;40431;52.198;9.902;2024-01-15T04:23:05;10.40;;;5.07;;
17524;SDS011;40431;52.198;9.902;2024-01-15T04:25:36;8.87;;;4.93;;
17524;SDS011;40431;52.198;9.902;2024-01-15T04:28:10;6.60;;;4.50;;
17524;SDS011;40431;52.198;9.902;2024-01-15T04:30:39;6.33;;;5.50;;
17524;SDS011;40431;52.198;9.902;2024-01-15T04:33:09;6.10;;;4.00;;
17524;SDS011;40431;52.198;9.902;2024-01-15T04:35:35;10.97;;;4.37;;
17524;SDS011;40431;52.198;9.902;2024-01-15T04:38:01;5.93;;;3.67;;
17524;SDS011;40431;52.198;9.902;2024-01-15T04:40:28;6.03;;;5.53;;
17524;SDS011;40431;52.198;9.902;2024-01-15T04:42:54;6.90;;;4.30;;
17524;SDS011;40431;52.198;9.902;2024-01-15T04:45:22;5.03;;;4.47;;
17524;SDS011;40431;52.198;9.902;2024-01-15T04:47:53;9.80;;;3.83;;
17524;SDS011;40431;52.198;9.902;2024-01-15T04:50:19;5.63;;;4.57;;
17524;SDS011;40431;52.198;9.902;2024-01-15T04:52:46;6.93;;;4.53;;
17524;SDS011;40431;52.198;9.902;2024-01-15T04:55:11;5.53;;;4.60;;
17524;SDS011;40431;52.198;9.902;2024-01-15T04:57:41;10.50;;;4.60;;
17524;SDS011;40431;52.198;9.902;2024-01-15T05:00:10;4.93;;;3.60;;
17524;SDS011;40431;52.198;9.902;2024-01-15T05:02:42;5.50;;;4.30;;
17524;SDS011;40431;52.198;9.902;2024-01-15T05:05:12;9.90;;;4.87;;
17524;SDS011;40431;52.198;9.902;2024-01-15T05:07:46;5.33;;;4.63;;
17524;SDS011;40431;52.198;9.902;2024-01-15T05:10:14;8.50;;;4.73;;
17524;SDS011;40431;52.198;9.902;2024-01-15T05:12:45;6.87;;;5.20;;
17524;SDS011;40431;52.198;9.902;2024-01-15T05:15:14;7.07;;;5.20;;
17524;SDS011;40431;52.198;9.902;2024-01-15T05:17:48;9.07;;;5.03;;
17524;SDS011;40431;52.198;9.902;2024-01-15T05:20:22;5.63;;;4.40;;
17524;SDS011;40431;52.198;9.902;2024-01-15T05:22:52;5.23;;;4.30;;
17524;SDS011;40431;52.198;9.902;2024-01-15T05:25:24;5.13;;;4.20;;
17524;SDS011;40431;52.198;9.902;2024-01-15T05:28:00;9.27;;;4.67;;
17524;SDS011;40431;52.198;9.902;2024-01-15T05:30:33;11.07;;;5.40;;
17524;SDS011;40431;52.198;9.902;2024-01-15T05:33:09;5.10;;;4.60;;
17524;SDS011;40431;52.198;9.902;2024-01-15T05:35:45;8.97;;;6.57;;
17524;SDS011;40431;52.198;9.902;2024-01-15T05:38:14;6.03;;;5.23;;
17524;SDS011;40431;52.198;9.902;2024-01-15T05:40:43;5.70;;;5.20;;
17524;SDS011;40431;52.198;9.902;2024-01-15T05:43:15;8.57;;;5.30;;
17524;SDS011;40431;52.198;9.902;2024-01-15T05:45:44;5.40;;;4.87;;
17524;SDS011;40431;52.198;9.902;2024-01-15T05:48:15;8.87;;;6.33;;
17524;SDS011;40431;52.198;9.902;2024-01-15T05:50:45;9.47;;;5.07;;
17524;SDS011;40431;52.198;9.902;2024-01-15T05:53:14;7.17;;;5.10;;
17524;SDS011;40431;52.198;9.902;2024-01-15T05:55:44;13.10;;;6.30;;
17524;SDS011;40431;52.198;9.902;2024-01-15T05:58:15;21.17;;;6.43;;
17524;SDS011;40431;52.198;9.902;2024-01-15T06:00:47;8.23;;;5.50;;
17524;SDS011;40431;52.198;9.902;2024-01-15T06:03:27;6.60;;;5.30;;
17524;SDS011;40431;52.198;9.902;2024-01-15T06:06:08;6.87;;;5.37;;
17524;SDS011;40431;52.198;9.902;2024-01-15T06:09:03;5.70;;;4.97;;
17524;SDS011;40431;52.198;9.902;2024-01-15T06:11:40;7.77;;;5.50;;
17524;SDS011;40431;52.198;9.902;2024-01-15T06:14:07;8.70;;;6.27;;
17524;SDS011;40431;52.198;9.902;2024-01-15T06:16:36;9.07;;;5.80;;
17524;SDS011;40431;52.198;9.902;2024-01-15T06:19:05;6.13;;;5.27;;
17524;SDS011;40431;52.198;9.902;2024-01-15T06:21:34;5.57;;;4.90;;
17524;SDS011;40431;52.198;9.902;2024-01-15T06:24:02;6.97;;;4.77;;
17524;SDS011;40431;52.198;9.902;2024-01-15T06:26:31;5.20;;;4.70;;
17524;SDS011;40431;52.198;9.902;2024-01-15T06:29:00;6.57;;;4.53;;
17524;SDS011;40431;52.198;9.902;2024-01-15T06:31:28;7.17;;;5.97;;
17524;SDS011;40431;52.198;9.902;2024-01-15T06:33:54;5.40;;;5.00;;
17524;SDS011;40431;52.198;9.902;2024-01-15T06:36:22;8.10;;;5.63;;
17524;SDS011;40431;52.198;9.902;2024-01-15T06:38:49;8.67;;;5.23;;
17524;SDS011;40431;52.198;9.902;2024-01-15T06:41:15;6.37;;;5.63;;
17524;SDS011;40431;52.198;9.902;2024-01-15T06:43:41;6.63;;;5.53;;
17524;SDS011;40431;52.198;9.902;2024-01-15T06:46:08;4.80;;;4.30;;
17524;SDS011;40431;52.198;9.902;2024-01-15T06:48:34;10.10;;;5.87;;
17524;SDS011;40431;52.198;9.902;2024-01-15T06:51:00;4.90;;;4.20;;
17524;SDS011;40431;52.198;9.902;2024-01-15T06:53:28;7.10;;;5.00;;
17524;SDS011;40431;52.198;9.902;2024-01-15T06:55:55;9.53;;;4.70;;
17524;SDS011;40431;52.198;9.902;2024-01-15T06:58:21;8.93;;;4.40;;
17524;SDS011;40431;52.198;9.902;2024-01-15T07:00:47;7.83;;;4.73;;
17524;SDS011;40431;52.198;9.902;2024-01-15T07:03:14;8.00;;;5.47;;
17524;SDS011;40431;52.198;9.902;2024-01-15T07:05:40;6.03;;;4.60;;
17524;SDS011;40431;52.198;9.902;2024-01-15T07:08:06;8.27;;;4.93;;
17524;SDS011;40431;52.198;9.902;2024-01-15T07:10:34;4.90;;;4.47;;
17524;SDS011;40431;52.198;9.902;2024-01-15T07:13:00;6.17;;;4.47;;
17524;SDS011;40431;52.198;9.902;2024-01-15T07:15:27;6.80;;;5.00;;
17524;SDS011;40431;52.198;9.902;2024-01-15T07:17:53;6.23;;;5.20;;
17524;SDS011;40431;52.198;9.902;2024-01-15T07:20:19;5.03;;;4.63;;
17524;SDS011;40431;52.198;9.902;2024-01-15T07:22:46;6.63;;;5.37;;
17524;SDS011;40431;52.198;9.902;2024-01-15T07:25:12;4.80;;;4.30;;
17524;SDS011;40431;52.198;9.902;2024-01-15T07:27:40;6.13;;;4.97;;
17524;SDS011;40431;52.198;9.902;2024-01-15T07:30:09;7.33;;;5.60;;
17524;SDS011;40431;52.198;9.902;2024-01-15T07:32:37;5.27;;;4.60;;
17524;SDS011;40431;52.198;9.902;2024-01-15T07:35:04;5.30;;;4.90;;
17524;SDS011;40431;52.198;9.902;2024-01-15T07:37:31;5.63;;;5.00;;
17524;SDS011;40431;52.198;9.902;2024-01-15T07:39:58;6.30;;;5.77;;
17524;SDS011;40431;52.198;9.902;2024-01-15T07:42:25;5.57;;;5.03;;
17524;SDS011;40431;52.198;9.902;2024-01-15T07:44:53;5.63;;;5.13;;
17524;SDS011;40431;52.198;9.902;2024-01-15T07:47:19;5.70;;;5.20;;
17524;SDS011;40431;52.198;9.902;2024-01-15T07:49:45;5.90;;;5.40;;
17524;SDS011;40431;52.198;9.902;2024-01-15T07:52:12;5.80;;;5.30;;
17524;SDS011;40431;52.198;9.902;2024-01-15T07:54:38;5.70;;;5.30;;
17524;SDS011;40431;52.198;9.902;2024-01-15T07:57:05;6.63;;;4.87;;
17524;SDS011;40431;52.198;9.902;2024-01-15T07:59:31;6.10;;;4.77;;
17524;SDS011;40431;52.198;9.902;2024-01-15T08:01:59;6.57;;;5.23;;
17524;SDS011;40431;52.198;9.902;2024-01-15T08:04:28;5.40;;;5.00;;
17524;SDS011;40431;52.198;9.902;2024-01-15T08:06:57;5.43;;;4.93;;
17524;SDS011;40431;52.198;9.902;2024-01-15T08:09:26;5.67;;;5.17;;
17524;SDS011;40431;52.198;9.902;2024-01-15T08:11:54;6.17;;;5.00;;
17524;SDS011;40431;52.198;9.902;2024-01-15T08:14:25;7.00;;;4.97;;
17524;SDS011;40431;52.198;9.902;2024-01-15T08:16:53;4.60;;;4.20;;
17524;SDS011;40431;52.198;9.902;2024-01-15T08:19:28;4.80;;;4.40;;
17524;SDS011;40431;52.198;9.902;2024-01-15T08:22:06;4.70;;;4.27;;
17524;SDS011;40431;52.198;9.902;2024-01-15T08:24:35;5.33;;;4.83;;
17524;SDS011;40431;52.198;9.902;2024-01-15T08:27:04;5.10;;;4.53;;
17524;SDS011;40431;52.198;9.902;2024-01-15T08:29:36;10.03;;;4.67;;
17524;SDS011;40431;52.198;9.902;2024-01-15T08:32:06;6.23;;;4.80;;
17524;SDS011;40431;52.198;9.902;2024-01-15T08:34:52;7.80;;;5.30;;
17524;SDS011;40431;52.198;9.902;2024-01-15T08:37:21;5.20;;;4.80;;
17524;SDS011;40431;52.198;9.902;2024-01-15T08:39:49;4.73;;;4.27;;
17524;SDS011;40431;52.198;9.902;2024-01-15T08:42:17;7.27;;;5.37;;
17524;SDS011;40431;52.198;9.902;2024-01-15T08:44:48;4.57;;;3.97;;
17524;SDS011;40431;52.198;9.902;2024-01-15T08:47:27;4.70;;;4.23;;
17524;SDS011;40431;52.198;9.902;2024-01-15T08:49:57;5.67;;;4.80;;
17524;SDS011;40431;52.198;9.902;2024-01-15T08:52:29;9.80;;;6.37;;
17524;SDS011;40431;52.198;9.902;2024-01-15T08:54:58;4.07;;;3.77;;
17524;SDS011;40431;52.198;9.902;2024-01-15T08:57:29;5.23;;;4.73;;
17524;SDS011;40431;52.198;9.902;2024-01-15T08:59:56;6.27;;;4.70;;
17524;SDS011;40431;52.198;9.902;2024-01-15T09:02:23;4.33;;;3.93;;
17524;SDS011;40431;52.198;9.902;2024-01-15T09:04:49;4.67;;;4.20;;
17524;SDS011;40431;52.198;9.902;2024-01-15T09:07:18;4.97;;;4.57;;
17524;SDS011;40431;52.198;9.902;2024-01-15T09:09:44;6.17;;;4.83;;
17524;SDS011;40431;52.198;9.902;2024-01-15T09:12:10;5.50;;;5.00;;
17524;SDS011;40431;52.198;9.902;2024-01-15T09:14:40;4.00;;;3.67;;
17524;SDS011;40431;52.198;9.902;2024-01-15T09:17:06;5.90;;;4.20;;
17524;SDS011;40431;52.198;9.902;2024-01-15T09:19:33;5.37;;;3.77;;
17524;SDS011;40431;52.198;9.902;2024-01-15T09:21:59;4.37;;;3.97;;
17524;SDS011;40431;52.198;9.902;2024-01-15T09:24:27;5.60;;;3.77;;
17524;SDS011;40431;52.198;9.902;2024-01-15T09:26:57;7.20;;;4.07;;
17524;SDS011;40431;52.198;9.902;2024-01-15T09:29:28;6.27;;;4.80;;
17524;SDS011;40431;52.198;9.902;2024-01-15T09:32:05;6.80;;;4.40;;
17524;SDS011;40431;52.198;9.902;2024-01-15T09:34:42;4.80;;;4.40;;
17524;SDS011;40431;52.198;9.902;2024-01-15T09:37:11;8.00;;;5.20;;
17524;SDS011;40431;52.198;9.902;2024-01-15T09:39:42;5.63;;;4.73;;
17524;SDS011;40431;52.198;9.902;2024-01-15T09:42:11;7.37;;;4.30;;
17524;SDS011;40431;52.198;9.902;2024-01-15T09:44:42;8.33;;;4.80;;
17524;SDS011;40431;52.198;9.902;2024-01-15T09:47:12;5.73;;;4.73;;
17524;SDS011;40431;52.198;9.902;2024-01-15T09:49:50;9.50;;;5.10;;
17524;SDS011;40431;52.198;9.902;2024-01-15T09:52:21;5.27;;;4.50;;
17524;SDS011;40431;52.198;9.902;2024-01-15T09:54:57;10.57;;;4.47;;
17524;SDS011;40431;52.198;9.902;2024-01-15T09:57:36;6.60;;;4.90;;
17524;SDS011;40431;52.198;9.902;2024-01-15T10:00:15;6.27;;;3.90;;
17524;SDS011;40431;52.198;9.902;2024-01-15T10:02:46;7.00;;;4.30;;
17524;SDS011;40431;52.198;9.902;2024-01-15T10:05:17;4.43;;;3.80;;
17524;SDS011;40431;52.198;9.902;2024-01-15T10:07:50;5.87;;;4.30;;
17524;SDS011;40431;52.198;9.902;2024-01-15T10:10:34;6.20;;;4.77;;
17524;SDS011;40431;52.198;9.902;2024-01-15T10:13:09;4.47;;;3.57;;
17524;SDS011;40431;52.198;9.902;2024-01-15T10:15:45;5.67;;;3.80;;
17524;SDS011;40431;52.198;9.902;2024-01-15T10:18:16;4.07;;;3.77;;
17524;SDS011;40431;52.198;9.902;2024-01-15T10:20:45;4.20;;;3.80;;
17524;SDS011;40431;52.198;9.902;2024-01-15T10:23:15;5.20;;;4.33;;
17524;SDS011;40431;52.198;9.902;2024-01-15T10:25:49;4.93;;;4.43;;
17524;SDS011;40431;52.198;9.902;2024-01-15T10:28:29;5.73;;;4.13;;
17524;SDS011;40431;52.198;9.902;2024-01-15T10:31:01;5.10;;;3.83;;
17524;SDS011;40431;52.198;9.902;2024-01-15T10:33:31;4.17;;;3.87;;
17524;SDS011;40431;52.198;9.902;2024-01-15T10:36:00;5.80;;;4.73;;
17524;SDS011;40431;52.198;9.902;2024-01-15T10:38:30;5.37;;;4.20;;
17524;SDS011;40431;52.198;9.902;2024-01-15T10:41:02;4.70;;;3.50;;
17524;SDS011;40431;52.198;9.902;2024-01-15T10:43:35;5.30;;;3.60;;
17524;SDS011;40431;52.198;9.902;2024-01-15T10:46:03;8.00;;;3.77;;
17524;SDS011;40431;52.198;9.902;2024-01-15T10:48:32;5.03;;;4.50;;
17524;SDS011;40431;52.198;9.902;2024-01-15T10:51:02;6.00;;;4.90;;
17524;SDS011;40431;52.198;9.902;2024-01-15T10:53:37;7.30;;;6.13;;
17524;SDS011;40431;52.198;9.902;2024-01-15T10:56:11;5.40;;;3.70;;
17524;SDS011;40431;52.198;9.902;2024-01-15T10:58:42;4.60;;;3.73;;
17524;SDS011;40431;52.198;9.902;2024-01-15T11:01:13;5.00;;;3.20;;
17524;SDS011;40431;52.198;9.902;2024-01-15T11:03:45;4.27;;;3.97;;
17524;SDS011;40431;52.198;9.902;2024-01-15T11:06:18;4.33;;;3.97;;
17524;SDS011;40431;52.198;9.902;2024-01-15T11:08:47;4.80;;;4.40;;
17524;SDS011;40431;52.198;9.902;2024-01-15T11:11:18;4.27;;;3.87;;
17524;SDS011;40431;52.198;9.902;2024-01-15T11:13:48;3.87;;;3.53;;
17524;SDS011;40431;52.198;9.902;2024-01-15T11:16:18;5.23;;;3.57;;
17524;SDS011;40431;52.198;9.902;2024-01-15T11:19:03;3.97;;;3.63;;
17524;SDS011;40431;52.198;9.902;2024-01-15T11:21:34;5.87;;;4.60;;
17524;SDS011;40431;52.198;9.902;2024-01-15T11:24:10;6.70;;;5.40;;
17524;SDS011;40431;52.198;9.902;2024-01-15T11:27:06;4.30;;;3.90;;
17524;SDS011;40431;52.198;9.902;2024-01-15T11:29:34;3.70;;;3.43;;
17524;SDS011;40431;52.198;9.902;2024-01-15T11:32:02;4.17;;;3.87;;
17524;SDS011;40431;52.198;9.902;2024-01-15T11:37:16;4.97;;;4.03;;
17524;SDS011;40431;52.198;9.902;2024-01-15T11:39:43;4.20;;;3.90;;
17524;SDS011;40431;52.198;9.902;2024-01-15T11:42:10;6.00;;;5.40;;
17524;SDS011;40431;52.198;9.902;2024-01-15T11:44:37;5.07;;;4.67;;
17524;SDS011;40431;52.198;9.902;2024-01-15T11:47:04;4.80;;;4.27;;
17524;SDS011;40431;52.198;9.902;2024-01-15T11:49:34;5.00;;;4.17;;
17524;SDS011;40431;52.198;9.902;2024-01-15T11:52:26;5.70;;;4.00;;
17524;SDS011;40431;52.198;9.902;2024-01-15T11:54:55;4.70;;;3.70;;
17524;SDS011;40431;52.198;9.902;2024-01-15T11:57:32;6.47;;;3.93;;
17524;SDS011;40431;52.198;9.902;2024-01-15T12:00:03;8.57;;;4.50;;
17524;SDS011;40431;52.198;9.902;2024-01-15T12:02:30;7.83;;;3.70;;
17524;SDS011;40431;52.198;9.902;2024-01-15T12:04:57;4.63;;;4.10;;
17524;SDS011;40431;52.198;9.902;2024-01-15T12:07:23;6.73;;;4.67;;
17524;SDS011;40431;52.198;9.902;2024-01-15T12:09:49;3.97;;;3.57;;
17524;SDS011;40431;52.198;9.902;2024-01-15T12:12:17;5.23;;;3.93;;
17524;SDS011;40431;52.198;9.902;2024-01-15T12:14:50;7.87;;;4.30;;
17524;SDS011;40431;52.198;9.902;2024-01-15T12:17:16;5.20;;;4.70;;
17524;SDS011;40431;52.198;9.902;2024-01-15T12:19:43;5.07;;;3.93;;
17524;SDS011;40431;52.198;9.902;2024-01-15T12:22:09;8.37;;;4.10;;
17524;SDS011;40431;52.198;9.902;2024-01-15T12:24:36;6.80;;;4.23;;
17524;SDS011;40431;52.198;9.902;2024-01-15T12:27:03;4.83;;;3.83;;
17524;SDS011;40431;52.198;9.902;2024-01-15T12:29:30;8.40;;;4.67;;
17524;SDS011;40431;52.198;9.902;2024-01-15T12:31:58;8.17;;;5.80;;
17524;SDS011;40431;52.198;9.902;2024-01-15T12:34:28;9.93;;;6.07;;
17524;SDS011;40431;52.198;9.902;2024-01-15T12:36:56;7.20;;;5.40;;
17524;SDS011;40431;52.198;9.902;2024-01-15T12:39:23;9.03;;;4.33;;
17524;SDS011;40431;52.198;9.902;2024-01-15T12:41:50;5.60;;;3.90;;
17524;SDS011;40431;52.198;9.902;2024-01-15T12:44:17;7.73;;;4.07;;
17524;SDS011;40431;52.198;9.902;2024-01-15T12:46:43;4.50;;;3.63;;
17524;SDS011;40431;52.198;9.902;2024-01-15T12:49:11;4.20;;;3.90;;
17524;SDS011;40431;52.198;9.902;2024-01-15T12:51:39;5.30;;;3.70;;
17524;SDS011;40431;52.198;9.902;2024-01-15T12:54:06;6.43;;;3.90;;
17524;SDS011;40431;52.198;9.902;2024-01-15T12:56:33;7.90;;;4.00;;
17524;SDS011;40431;52.198;9.902;2024-01-15T12:59:01;6.17;;;4.83;;
17524;SDS011;40431;52.198;9.902;2024-01-15T13:01:39;7.60;;;3.83;;
17524;SDS011;40431;52.198;9.902;2024-01-15T13:04:23;4.73;;;3.67;;
17524;SDS011;40431;52.198;9.902;2024-01-15T13:06:58;6.50;;;4.03;;
17524;SDS011;40431;52.198;9.902;2024-01-15T13:09:28;5.60;;;3.30;;
17524;SDS011;40431;52.198;9.902;2024-01-15T13:11:57;5.67;;;3.03;;
17524;SDS011;40431;52.198;9.902;2024-01-15T13:14:25;4.30;;;3.63;;
17524;SDS011;40431;52.198;9.902;2024-01-15T13:16:55;8.93;;;4.67;;
17524;SDS011;40431;52.198;9.902;2024-01-15T13:19:26;6.83;;;3.57;;
17524;SDS011;40431;52.198;9.902;2024-01-15T13:21:55;7.03;;;3.40;;
17524;SDS011;40431;52.198;9.902;2024-01-15T13:24:26;7.33;;;4.63;;
17524;SDS011;40431;52.198;9.902;2024-01-15T13:26:56;6.27;;;4.47;;
17524;SDS011;40431;52.198;9.902;2024-01-15T13:29:25;8.37;;;5.00;;
17524;SDS011;40431;52.198;9.902;2024-01-15T13:31:56;7.07;;;4.73;;
17524;SDS011;40431;52.198;9.902;2024-01-15T13:34:29;7.70;;;4.70;;
17524;SDS011;40431;52.198;9.902;2024-01-15T13:37:06;6.73;;;4.43;;
17524;SDS011;40431;52.198;9.902;2024-01-15T13:39:45;6.70;;;3.93;;
17524;SDS011;40431;52.198;9.902;2024-01-15T13:42:19;5.00;;;3.97;;
17524;SDS011;40431;52.198;9.902;2024-01-15T13:44:53;7.50;;;3.97;;
17524;SDS011;40431;52.198;9.902;2024-01-15T13:47:23;4.93;;;3.80;;
17524;SDS011;40431;52.198;9.902;2024-01-15T13:49:55;3.77;;;3.03;;
17524;SDS011;40431;52.198;9.902;2024-01-15T13:52:24;4.13;;;3.33;;
17524;SDS011;40431;52.198;9.902;2024-01-15T13:54:53;5.23;;;3.27;;
17524;SDS011;40431;52.198;9.902;2024-01-15T13:57:22;5.43;;;4.90;;
17524;SDS011;40431;52.198;9.902;2024-01-15T13:59:51;4.97;;;4.30;;
17524;SDS011;40431;52.198;9.902;2024-01-15T14:02:21;8.07;;;5.23;;
17524;SDS011;40431;52.198;9.902;2024-01-15T14:04:55;5.57;;;4.57;;
17524;SDS011;40431;52.198;9.902;2024-01-15T14:07:27;10.60;;;7.40;;
17524;SDS011;40431;52.198;9.902;2024-01-15T14:09:56;5.77;;;4.67;;
17524;SDS011;40431;52.198;9.902;2024-01-15T14:12:25;5.53;;;4.70;;
17524;SDS011;40431;52.198;9.902;2024-01-15T14:14:55;5.83;;;5.07;;
17524;SDS011;40431;52.198;9.902;2024-01-15T14:17:28;9.20;;;6.03;;
17524;SDS011;40431;52.198;9.902;2024-01-15T14:20:01;8.57;;;4.83;;
17524;SDS011;40431;52.198;9.902;2024-01-15T14:22:31;10.43;;;6.37;;
17524;SDS011;40431;52.198;9.902;2024-01-15T14:25:02;10.30;;;7.17;;
17524;SDS011;40431;52.198;9.902;2024-01-15T14:27:35;14.90;;;12.33;;
17524;SDS011;40431;52.198;9.902;2024-01-15T14:30:06;4.53;;;4.10;;
17524;SDS011;40431;52.198;9.902;2024-01-15T14:32:45;6.40;;;5.40;;
17524;SDS011;40431;52.198;9.902;2024-01-15T14:35:17;5.73;;;5.10;;
17524;SDS011;40431;52.198;9.902;2024-01-15T14:37:46;4.97;;;4.47;;
17524;SDS011;40431;52.198;9.902;2024-01-15T14:40:26;13.17;;;11.77;;
17524;SDS011;40431;52.198;9.902;2024-01-15T14:43:07;4.50;;;4.03;;
17524;SDS011;40431;52.198;9.902;2024-01-15T14:45:45;4.33;;;4.03;;
17524;SDS011;40431;52.198;9.902;2024-01-15T14:48:33;3.90;;;3.60;;
17524;SDS011;40431;52.198;9.902;2024-01-15T14:51:05;5.50;;;4.33;;
17524;SDS011;40431;52.198;9.902;2024-01-15T14:53:36;5.13;;;4.63;;
17524;SDS011;40431;52.198;9.902;2024-01-15T14:56:10;4.83;;;4.27;;
17524;SDS011;40431;52.198;9.902;2024-01-15T14:59:16;4.90;;;4.57;;
17524;SDS011;40431;52.198;9.902;2024-01-15T15:01:55;4.47;;;4.13;;
17524;SDS011;40431;52.198;9.902;2024-01-15T15:04:24;8.50;;;4.40;;
17524;SDS011;40431;52.198;9.902;2024-01-15T15:06:55;4.70;;;4.30;;
17524;SDS011;40431;52.198;9.902;2024-01-15T15:09:28;4.67;;;4.27;;
17524;SDS011;40431;52.198;9.902;2024-01-15T15:12:01;4.90;;;4.50;;